createdAt,value
2022-07-29T00:02:15.827Z,1.75
2022-07-29T00:04:43.705Z,1.92
2022-07-29T00:07:11.561Z,2.17
2022-07-29T00:09:51.008Z,2.08
2022-07-29T00:12:26.355Z,2.10
2022-07-29T00:14:56.695Z,2.05
2022-07-29T00:17:25.272Z,1.85
2022-07-29T00:19:53.125Z,1.67
2022-07-29T00:22:21.154Z,1.45
2022-07-29T00:24:49.475Z,1.60
2022-07-29T00:27:17.233Z,1.85
2022-07-29T00:29:46.418Z,2.47
2022-07-29T00:32:14.211Z,1.70
2022-07-29T00:34:59.590Z,2.13
2022-07-29T00:37:27.558Z,1.85
2022-07-29T00:39:55.218Z,1.90
2022-07-29T00:42:22.860Z,2.20
2022-07-29T00:44:51.877Z,1.70
2022-07-29T00:47:19.570Z,1.90
2022-07-29T00:49:47.238Z,2.05
2022-07-29T00:52:16.930Z,2.17
2022-07-29T00:54:45.139Z,2.15
2022-07-29T00:57:14.175Z,2.10
2022-07-29T00:59:41.874Z,1.98
2022-07-29T01:02:10.907Z,2.33
2022-07-29T01:04:38.611Z,2.40
2022-07-29T01:07:06.336Z,2.03
2022-07-29T01:09:46.378Z,2.50
2022-07-29T01:12:17.194Z,1.90
2022-07-29T01:14:45.235Z,1.83
2022-07-29T01:17:16.076Z,2.20
2022-07-29T01:19:49.873Z,1.63
2022-07-29T01:22:24.358Z,1.85
2022-07-29T01:25:13.060Z,2.50
2022-07-29T01:27:44.006Z,2.10
2022-07-29T01:30:14.751Z,2.25
2022-07-29T01:32:44.895Z,2.33
2022-07-29T01:35:15.985Z,2.10
2022-07-29T01:37:47.612Z,2.30
2022-07-29T01:40:19.086Z,2.20
2022-07-29T01:42:50.236Z,2.58
2022-07-29T01:45:20.934Z,2.17
2022-07-29T01:47:52.245Z,1.92
2022-07-29T01:50:20.705Z,3.08
2022-07-29T01:52:51.734Z,2.83
2022-07-29T01:55:20.016Z,2.38
2022-07-29T01:57:48.647Z,2.53
2022-07-29T02:00:17.132Z,2.85
2022-07-29T02:02:47.878Z,2.58
2022-07-29T02:05:16.939Z,2.60
2022-07-29T02:07:45.138Z,2.25
2022-07-29T02:10:13.833Z,2.78
2022-07-29T02:12:43.164Z,2.97
2022-07-29T02:15:17.048Z,2.83
2022-07-29T02:17:51.088Z,2.67
2022-07-29T02:20:19.125Z,2.70
2022-07-29T02:22:47.612Z,3.17
2022-07-29T02:25:15.690Z,2.80
2022-07-29T02:27:45.436Z,3.05
2022-07-29T02:30:13.840Z,2.20
2022-07-29T02:32:42.540Z,2.88
2022-07-29T02:35:11.956Z,2.88
2022-07-29T02:37:40.129Z,3.25
2022-07-29T02:40:10.427Z,3.03
2022-07-29T02:42:38.579Z,3.45
2022-07-29T02:45:09.151Z,2.65
2022-07-29T02:47:41.647Z,2.90
2022-07-29T02:50:14.308Z,3.28
2022-07-29T02:52:43.865Z,3.45
2022-07-29T02:55:16.210Z,3.40
2022-07-29T02:57:54.061Z,3.38
2022-07-29T03:00:23.424Z,3.30
2022-07-29T03:02:54.461Z,3.47
2022-07-29T03:05:24.676Z,3.35
2022-07-29T03:07:54.913Z,3.65
2022-07-29T03:10:23.152Z,3.15
2022-07-29T03:12:50.848Z,3.42
2022-07-29T03:15:18.751Z,3.45
2022-07-29T03:17:46.478Z,3.33
2022-07-29T03:20:14.756Z,3.53
2022-07-29T03:22:44.826Z,4.07
2022-07-29T03:25:13.000Z,3.95
2022-07-29T03:27:40.700Z,3.72
2022-07-29T03:30:09.109Z,3.88
2022-07-29T03:32:36.772Z,4.63
2022-07-29T03:35:05.280Z,4.25
2022-07-29T03:37:34.532Z,5.10
2022-07-29T03:40:04.376Z,3.88
2022-07-29T03:42:34.419Z,4.38
2022-07-29T03:45:03.598Z,4.45
2022-07-29T03:47:43.732Z,4.05
2022-07-29T03:50:20.347Z,4.43
2022-07-29T03:52:48.175Z,4.05
2022-07-29T03:55:17.417Z,4.32
2022-07-29T03:57:46.267Z,4.32
2022-07-29T04:00:14.260Z,4.30
2022-07-29T04:02:42.048Z,4.43
2022-07-29T04:05:13.809Z,4.43
2022-07-29T04:07:41.487Z,4.20
2022-07-29T04:10:09.977Z,4.80
2022-07-29T04:12:38.966Z,4.78
2022-07-29T04:15:07.193Z,5.05
2022-07-29T04:17:36.009Z,4.70
2022-07-29T04:20:03.631Z,4.60
2022-07-29T04:22:31.777Z,5.03
2022-07-29T04:25:03.715Z,4.88
2022-07-29T04:27:32.036Z,4.72
2022-07-29T04:30:01.038Z,4.40
2022-07-29T04:32:28.669Z,5.30
2022-07-29T04:34:56.322Z,5.65
2022-07-29T04:37:24.277Z,4.47
2022-07-29T04:39:52.092Z,5.35
2022-07-29T04:42:19.699Z,4.05
2022-07-29T04:44:55.927Z,4.93
2022-07-29T04:47:25.034Z,3.92
2022-07-29T04:49:52.663Z,4.95
2022-07-29T04:52:20.626Z,4.35
2022-07-29T04:54:48.325Z,4.72
2022-07-29T04:57:16.140Z,5.47
2022-07-29T04:59:43.830Z,4.53
2022-07-29T05:02:12.207Z,5.03
2022-07-29T05:04:41.304Z,4.28
2022-07-29T05:07:09.003Z,5.15
2022-07-29T05:09:36.651Z,4.80
2022-07-29T05:12:04.417Z,5.70
2022-07-29T05:14:32.150Z,5.07
2022-07-29T05:16:59.858Z,6.03
2022-07-29T05:19:27.463Z,4.68
2022-07-29T05:21:56.480Z,5.03
2022-07-29T05:24:24.159Z,5.35
2022-07-29T05:26:51.834Z,4.75
2022-07-29T05:29:42.587Z,5.13
2022-07-29T05:32:09.970Z,5.43
2022-07-29T05:34:37.674Z,4.80
2022-07-29T05:37:19.698Z,4.28
2022-07-29T05:39:50.497Z,4.60
2022-07-29T05:42:24.318Z,5.28
2022-07-29T05:44:51.986Z,5.50
2022-07-29T05:47:19.806Z,3.92
2022-07-29T05:49:47.621Z,4.70
2022-07-29T05:52:15.416Z,4.45
2022-07-29T05:54:44.513Z,5.20
2022-07-29T05:57:17.724Z,5.43
2022-07-29T05:59:45.390Z,4.57
2022-07-29T06:02:13.369Z,5.35
2022-07-29T06:04:41.017Z,4.78
2022-07-29T06:07:08.701Z,4.85
2022-07-29T06:09:36.668Z,4.53
2022-07-29T06:12:06.264Z,4.60
2022-07-29T06:14:33.987Z,5.00
2022-07-29T06:17:01.965Z,4.82
2022-07-29T06:19:29.822Z,4.60
2022-07-29T06:21:57.542Z,4.47
2022-07-29T06:24:25.270Z,4.10
2022-07-29T06:26:52.979Z,4.97
2022-07-29T06:29:22.099Z,4.07
2022-07-29T06:31:49.713Z,3.90
2022-07-29T06:34:17.748Z,3.78
2022-07-29T06:36:46.068Z,4.40
2022-07-29T06:39:14.049Z,4.35
2022-07-29T06:41:41.882Z,4.55
2022-07-29T06:44:14.760Z,3.85
2022-07-29T06:46:44.708Z,3.58
2022-07-29T06:49:13.449Z,4.15
2022-07-29T06:51:41.701Z,3.72
2022-07-29T06:54:09.517Z,3.95
2022-07-29T06:56:40.249Z,4.20
2022-07-29T06:59:09.167Z,3.58
2022-07-29T07:01:37.800Z,3.60
2022-07-29T07:04:07.147Z,3.45
2022-07-29T07:06:35.039Z,4.22
2022-07-29T07:09:02.799Z,4.00
2022-07-29T07:11:32.162Z,4.20
2022-07-29T07:14:03.352Z,3.75
2022-07-29T07:16:32.777Z,4.40
2022-07-29T07:19:00.736Z,4.32
2022-07-29T07:21:30.273Z,4.30
2022-07-29T07:23:58.533Z,3.45
2022-07-29T07:26:27.836Z,3.85
2022-07-29T07:28:55.523Z,4.72
2022-07-29T07:31:23.460Z,4.68
2022-07-29T07:33:51.239Z,4.60
2022-07-29T07:36:18.869Z,4.05
2022-07-29T07:38:48.012Z,4.00
2022-07-29T07:41:16.702Z,3.85
2022-07-29T07:43:44.390Z,4.07
2022-07-29T07:46:12.208Z,3.72
2022-07-29T07:48:39.925Z,3.40
2022-07-29T07:51:08.242Z,3.72
2022-07-29T07:53:36.129Z,3.90
2022-07-29T07:56:10.788Z,3.80
2022-07-29T07:58:39.552Z,4.07
2022-07-29T08:01:07.385Z,3.85
2022-07-29T08:03:35.051Z,3.92
2022-07-29T08:06:02.704Z,4.57
2022-07-29T08:08:30.659Z,3.83
2022-07-29T08:10:58.293Z,4.35
2022-07-29T08:13:31.199Z,3.75
2022-07-29T08:16:02.753Z,3.80
2022-07-29T08:18:33.102Z,4.63
2022-07-29T08:21:00.849Z,4.32
2022-07-29T08:23:47.400Z,3.70
2022-07-29T08:26:16.566Z,3.97
2022-07-29T08:28:47.161Z,4.00
2022-07-29T08:31:15.392Z,4.00
2022-07-29T08:33:43.124Z,3.17
2022-07-29T08:36:10.914Z,3.30
2022-07-29T08:38:38.778Z,3.38
2022-07-29T08:41:06.500Z,3.28
2022-07-29T08:43:36.119Z,3.40
2022-07-29T08:46:05.204Z,3.67
2022-07-29T08:48:33.066Z,3.45
2022-07-29T08:51:01.514Z,4.30
2022-07-29T08:53:30.504Z,3.60
2022-07-29T08:55:59.090Z,3.97
2022-07-29T08:58:27.624Z,3.92
2022-07-29T09:00:56.677Z,4.00
2022-07-29T09:03:29.453Z,4.95
2022-07-29T09:05:57.202Z,3.90
2022-07-29T09:08:25.140Z,4.13
2022-07-29T09:10:53.032Z,3.90
2022-07-29T09:13:20.686Z,3.90
2022-07-29T09:15:48.335Z,3.40
2022-07-29T09:18:35.030Z,3.67
2022-07-29T09:21:20.279Z,4.90
2022-07-29T09:24:01.459Z,3.55
2022-07-29T09:26:30.011Z,3.70
2022-07-29T09:28:57.825Z,3.50
2022-07-29T09:31:33.920Z,3.53
2022-07-29T09:34:02.961Z,3.00
2022-07-29T09:36:31.151Z,3.33
2022-07-29T09:38:59.986Z,4.28
2022-07-29T09:41:27.753Z,3.33
2022-07-29T09:43:56.267Z,2.92
2022-07-29T09:46:23.969Z,3.67
2022-07-29T09:49:06.485Z,2.97
2022-07-29T09:51:38.934Z,3.20
2022-07-29T09:54:21.489Z,3.63
2022-07-29T09:56:49.437Z,3.30
2022-07-29T09:59:17.201Z,3.60
2022-07-29T10:01:44.935Z,3.45
2022-07-29T10:04:12.558Z,4.43
2022-07-29T10:07:03.868Z,3.08
2022-07-29T10:09:32.265Z,3.63
2022-07-29T10:12:11.874Z,3.55
2022-07-29T10:14:40.608Z,3.95
2022-07-29T10:17:10.255Z,3.60
2022-07-29T10:19:39.351Z,3.53
2022-07-29T10:22:09.595Z,6.50
2022-07-29T10:24:38.424Z,4.47
2022-07-29T10:27:06.838Z,4.53
2022-07-29T10:29:35.150Z,4.10
2022-07-29T10:32:09.589Z,4.53
2022-07-29T10:34:47.890Z,3.92
2022-07-29T10:37:22.089Z,4.68
2022-07-29T10:39:59.657Z,3.78
2022-07-29T10:42:33.534Z,3.78
2022-07-29T10:47:29.793Z,4.43
2022-07-29T10:49:59.143Z,3.38
2022-07-29T10:52:44.160Z,3.85
2022-07-29T10:55:32.354Z,3.65
2022-07-29T10:58:27.165Z,3.95
2022-07-29T11:00:56.419Z,4.00
2022-07-29T11:03:50.740Z,5.13
2022-07-29T11:06:26.250Z,4.65
2022-07-29T11:11:44.192Z,3.58
2022-07-29T11:14:26.435Z,5.72
2022-07-29T11:17:06.529Z,4.35
2022-07-29T11:19:34.558Z,5.78
2022-07-29T11:22:05.276Z,5.53
2022-07-29T11:24:35.079Z,5.07
2022-07-29T11:27:13.845Z,5.10
2022-07-29T11:29:49.862Z,4.47
2022-07-29T11:32:22.746Z,4.65
2022-07-29T11:34:51.807Z,4.53
2022-07-29T11:37:28.013Z,4.15
2022-07-29T11:40:16.960Z,3.60
2022-07-29T11:42:47.484Z,3.53
2022-07-29T11:45:42.496Z,3.88
2022-07-29T11:48:29.521Z,3.22
2022-07-29T11:50:58.302Z,2.92
2022-07-29T11:53:28.938Z,3.15
2022-07-29T11:56:00.810Z,2.90
2022-07-29T11:58:29.483Z,4.60
2022-07-29T12:00:58.978Z,3.78
2022-07-29T12:03:36.151Z,4.63
2022-07-29T12:06:07.542Z,3.97
2022-07-29T12:08:41.961Z,3.90
2022-07-29T12:11:17.126Z,3.30
2022-07-29T12:13:45.093Z,3.72
2022-07-29T12:16:14.577Z,3.20
2022-07-29T12:18:43.218Z,3.00
2022-07-29T12:21:12.531Z,3.13
2022-07-29T12:23:40.299Z,3.00
2022-07-29T12:26:10.883Z,3.13
2022-07-29T12:28:39.516Z,3.08
2022-07-29T12:31:08.167Z,3.33
2022-07-29T12:33:37.615Z,2.83
2022-07-29T12:36:08.637Z,2.45
2022-07-29T12:38:38.380Z,2.40
2022-07-29T12:41:06.306Z,3.22
2022-07-29T12:43:34.006Z,2.60
2022-07-29T12:46:13.575Z,3.28
2022-07-29T12:48:43.351Z,2.30
2022-07-29T12:51:12.632Z,2.17
2022-07-29T12:53:40.803Z,2.10
2022-07-29T12:56:40.623Z,2.42
2022-07-29T12:59:18.282Z,2.25
2022-07-29T13:01:48.013Z,2.17
2022-07-29T13:04:28.031Z,2.50
2022-07-29T13:07:00.705Z,2.50
2022-07-29T13:09:37.790Z,2.35
2022-07-29T13:12:08.472Z,2.17
2022-07-29T13:14:36.829Z,2.53
2022-07-29T13:17:06.532Z,2.15
2022-07-29T13:19:41.343Z,2.75
2022-07-29T13:22:09.531Z,2.25
2022-07-29T13:24:47.219Z,2.22
2022-07-29T13:27:15.707Z,2.63
2022-07-29T13:29:43.343Z,2.20
2022-07-29T13:32:11.071Z,2.42
2022-07-29T13:34:40.221Z,2.25
2022-07-29T13:37:07.819Z,2.00
2022-07-29T13:39:36.598Z,1.90
2022-07-29T13:42:06.833Z,2.55
2022-07-29T13:44:38.212Z,2.55
2022-07-29T13:47:05.919Z,2.17
2022-07-29T13:49:33.585Z,2.03
2022-07-29T13:52:02.735Z,2.15
2022-07-29T13:54:30.424Z,2.10
2022-07-29T13:56:58.075Z,2.15
2022-07-29T13:59:25.834Z,2.35
2022-07-29T14:01:53.435Z,2.15
2022-07-29T14:04:21.225Z,2.20
2022-07-29T14:06:48.932Z,2.40
2022-07-29T14:09:17.972Z,2.20
2022-07-29T14:11:46.772Z,2.40
2022-07-29T14:14:14.443Z,2.42
2022-07-29T14:16:44.546Z,2.15
2022-07-29T14:21:45.645Z,2.40
2022-07-29T14:24:16.287Z,2.45
2022-07-29T14:26:47.226Z,2.25
2022-07-29T14:29:14.891Z,2.45
2022-07-29T14:31:44.089Z,2.70
2022-07-29T14:34:11.751Z,4.05
2022-07-29T14:36:39.420Z,2.40
2022-07-29T14:39:07.307Z,2.65
2022-07-29T14:41:35.285Z,2.28
2022-07-29T14:44:04.485Z,2.30
2022-07-29T14:46:32.211Z,2.55
2022-07-29T14:48:59.950Z,2.10
2022-07-29T14:51:32.381Z,2.05
2022-07-29T14:54:00.367Z,2.72
2022-07-29T14:56:37.306Z,2.15
2022-07-29T14:59:06.913Z,2.00
2022-07-29T15:01:34.632Z,2.63
2022-07-29T15:04:02.518Z,2.38
2022-07-29T15:06:30.157Z,2.55
2022-07-29T15:08:57.852Z,2.78
2022-07-29T15:11:25.573Z,2.47
2022-07-29T15:13:53.210Z,2.65
2022-07-29T15:16:22.338Z,2.20
2022-07-29T15:18:50.120Z,2.00
2022-07-29T15:21:17.858Z,2.33
2022-07-29T15:23:45.496Z,2.30
2022-07-29T15:26:13.258Z,2.30
2022-07-29T15:28:41.176Z,2.30
2022-07-29T15:31:10.080Z,2.25
2022-07-29T15:33:39.171Z,2.25
2022-07-29T15:36:07.001Z,2.50
2022-07-29T15:38:34.877Z,2.13
2022-07-29T15:41:02.488Z,2.60
2022-07-29T15:43:30.138Z,2.38
2022-07-29T15:46:15.260Z,2.63
2022-07-29T15:48:44.497Z,2.80
2022-07-29T15:51:12.153Z,2.28
2022-07-29T15:53:39.821Z,3.28
2022-07-29T15:56:07.733Z,2.60
2022-07-29T15:58:35.402Z,3.00
2022-07-29T16:01:03.073Z,2.25
2022-07-29T16:03:30.906Z,2.80
2022-07-29T16:06:00.291Z,3.30
2022-07-29T16:08:43.004Z,2.30
2022-07-29T16:11:11.922Z,3.00
2022-07-29T16:13:39.641Z,3.60
2022-07-29T16:16:07.804Z,2.40
2022-07-29T16:18:36.360Z,2.63
2022-07-29T16:21:05.451Z,2.63
2022-07-29T16:23:33.325Z,2.92
2022-07-29T16:26:01.451Z,2.65
2022-07-29T16:28:29.444Z,2.40
2022-07-29T16:30:57.293Z,2.30
2022-07-29T16:33:25.334Z,2.45
2022-07-29T16:35:53.746Z,3.58
2022-07-29T16:38:23.254Z,3.28
2022-07-29T16:40:50.910Z,2.72
2022-07-29T16:43:18.752Z,2.63
2022-07-29T16:45:47.076Z,2.72
2022-07-29T16:48:15.251Z,2.88
2022-07-29T16:50:45.963Z,2.33
2022-07-29T16:53:13.759Z,2.60
2022-07-29T16:55:42.794Z,2.63
2022-07-29T16:58:10.775Z,3.15
2022-07-29T17:00:38.681Z,2.60
2022-07-29T17:03:06.708Z,3.00
2022-07-29T17:05:52.774Z,2.88
2022-07-29T17:08:21.909Z,2.45
2022-07-29T17:10:51.249Z,3.88
2022-07-29T17:13:18.884Z,2.60
2022-07-29T17:15:46.562Z,3.13
2022-07-29T17:18:14.242Z,2.35
2022-07-29T17:20:42.463Z,3.28
2022-07-29T17:23:10.404Z,2.63
2022-07-29T17:25:38.273Z,2.80
2022-07-29T17:28:07.338Z,3.55
2022-07-29T17:30:35.167Z,3.22
2022-07-29T17:33:02.872Z,3.60
2022-07-29T17:35:47.952Z,2.90
2022-07-29T17:38:15.599Z,2.50
2022-07-29T17:40:43.390Z,2.70
2022-07-29T17:43:12.446Z,2.90
2022-07-29T17:45:49.052Z,2.92
2022-07-29T17:48:18.442Z,2.42
2022-07-29T17:50:46.239Z,3.22
2022-07-29T17:53:15.913Z,2.40
2022-07-29T17:55:45.489Z,2.60
2022-07-29T17:58:14.583Z,2.95
2022-07-29T18:00:42.957Z,2.78
2022-07-29T18:03:10.723Z,3.00
2022-07-29T18:05:38.415Z,2.92
2022-07-29T18:08:06.341Z,2.40
2022-07-29T18:10:34.470Z,2.92
2022-07-29T18:13:02.852Z,3.33
2022-07-29T18:15:31.995Z,2.95
2022-07-29T18:17:59.747Z,2.42
2022-07-29T18:20:28.282Z,2.97
2022-07-29T18:22:55.956Z,2.80
2022-07-29T18:25:23.737Z,2.50
2022-07-29T18:27:51.508Z,2.80
2022-07-29T18:30:19.333Z,2.80
2022-07-29T18:33:19.185Z,2.35
2022-07-29T18:35:38.515Z,2.20
2022-07-29T18:38:06.222Z,2.58
2022-07-29T18:40:34.020Z,2.40
2022-07-29T18:43:01.644Z,1.95
2022-07-29T18:45:29.305Z,2.60
2022-07-29T18:47:58.402Z,2.75
2022-07-29T18:50:29.374Z,1.98
2022-07-29T18:52:58.768Z,2.63
2022-07-29T18:55:26.892Z,2.42
2022-07-29T18:57:57.129Z,2.10
2022-07-29T19:00:26.571Z,2.45
2022-07-29T19:02:54.570Z,2.28
2022-07-29T19:05:24.079Z,2.50
2022-07-29T19:07:51.786Z,3.08
2022-07-29T19:10:19.417Z,2.35
2022-07-29T19:12:47.047Z,2.80
2022-07-29T19:15:19.908Z,2.25
2022-07-29T19:17:48.650Z,2.63
2022-07-29T19:20:16.838Z,2.90
2022-07-29T19:22:46.116Z,2.45
2022-07-29T19:25:15.117Z,2.53
2022-07-29T19:27:42.950Z,2.00
2022-07-29T19:30:11.316Z,2.10
2022-07-29T19:32:39.277Z,2.08
2022-07-29T19:35:25.457Z,2.70
2022-07-29T19:37:55.316Z,4.93
2022-07-29T19:40:23.300Z,2.30
2022-07-29T19:42:51.755Z,2.17
2022-07-29T19:45:20.434Z,2.30
2022-07-29T19:47:48.090Z,2.25
2022-07-29T19:50:16.436Z,2.40
2022-07-29T19:52:45.067Z,2.03
2022-07-29T19:55:14.321Z,2.67
2022-07-29T19:57:42.217Z,2.78
2022-07-29T20:00:11.045Z,2.75
2022-07-29T20:02:39.538Z,2.38
2022-07-29T20:05:08.043Z,2.88
2022-07-29T20:07:36.059Z,2.60
2022-07-29T20:10:04.805Z,2.40
2022-07-29T20:12:33.852Z,2.22
2022-07-29T20:15:01.640Z,2.35
2022-07-29T20:17:29.370Z,2.42
2022-07-29T20:19:59.938Z,2.10
2022-07-29T20:22:27.798Z,2.33
2022-07-29T20:24:55.444Z,2.20
2022-07-29T20:27:23.082Z,2.55
2022-07-29T20:29:52.063Z,2.35
2022-07-29T20:32:19.746Z,2.10
2022-07-29T20:34:47.378Z,2.58
2022-07-29T20:37:16.640Z,2.67
2022-07-29T20:39:46.432Z,2.92
2022-07-29T20:42:14.074Z,2.50
2022-07-29T20:44:42.009Z,2.60
2022-07-29T20:47:11.044Z,2.83
2022-07-29T20:49:38.706Z,2.63
2022-07-29T20:52:06.635Z,3.72
2022-07-29T20:54:34.327Z,3.08
2022-07-29T20:57:02.346Z,3.30
2022-07-29T20:59:30.399Z,3.28
2022-07-29T21:01:59.376Z,3.70
2022-07-29T21:04:30.785Z,2.85
2022-07-29T21:06:59.134Z,3.60
2022-07-29T21:09:28.561Z,4.25
2022-07-29T21:11:56.208Z,3.20
2022-07-29T21:14:46.007Z,4.18
2022-07-29T21:17:13.670Z,2.92
2022-07-29T21:19:43.384Z,4.05
2022-07-29T21:22:11.038Z,3.55
2022-07-29T21:24:38.888Z,3.90
2022-07-29T21:27:24.087Z,3.88
2022-07-29T21:29:52.072Z,3.80
2022-07-29T21:32:29.685Z,3.55
2022-07-29T21:34:59.519Z,3.10
2022-07-29T21:37:28.083Z,3.50
2022-07-29T21:39:55.849Z,4.18
2022-07-29T21:42:23.928Z,3.90
2022-07-29T21:44:52.148Z,4.03
2022-07-29T21:47:19.759Z,5.75
2022-07-29T21:49:47.682Z,4.30
2022-07-29T21:52:18.855Z,4.40
2022-07-29T21:54:46.600Z,4.68
2022-07-29T21:57:17.602Z,4.05
2022-07-29T21:59:45.234Z,4.18
2022-07-29T22:02:12.873Z,4.60
2022-07-29T22:04:40.599Z,5.55
2022-07-29T22:07:08.345Z,4.72
2022-07-29T22:09:37.579Z,5.25
2022-07-29T22:12:05.530Z,4.43
2022-07-29T22:14:33.260Z,5.25
2022-07-29T22:17:01.376Z,5.38
2022-07-29T22:19:29.973Z,5.35
2022-07-29T22:21:58.331Z,5.45
2022-07-29T22:24:26.143Z,5.07
2022-07-29T22:26:55.203Z,5.38
2022-07-29T22:29:26.802Z,5.75
2022-07-29T22:31:54.479Z,4.50
2022-07-29T22:34:22.250Z,5.45
2022-07-29T22:36:49.871Z,5.68
2022-07-29T22:39:17.758Z,5.97
2022-07-29T22:41:45.419Z,6.63
2022-07-29T22:44:14.761Z,5.32
2022-07-29T22:46:42.525Z,5.88
2022-07-29T22:49:10.420Z,6.63
2022-07-29T22:51:38.161Z,7.45
2022-07-29T22:54:06.848Z,7.03
2022-07-29T22:56:34.570Z,5.78
2022-07-29T22:59:04.638Z,6.03
2022-07-29T23:01:37.786Z,7.22
2022-07-29T23:04:06.006Z,6.38
2022-07-29T23:06:33.895Z,6.18
2022-07-29T23:09:02.085Z,5.95
2022-07-29T23:11:29.779Z,6.88
2022-07-29T23:13:57.408Z,5.97
2022-07-29T23:16:26.659Z,6.25
2022-07-29T23:18:56.160Z,5.80
2022-07-29T23:21:23.826Z,6.47
2022-07-29T23:23:51.582Z,6.45
2022-07-29T23:26:19.338Z,6.70
2022-07-29T23:28:47.149Z,7.93
2022-07-29T23:31:14.973Z,7.55
2022-07-29T23:33:42.838Z,7.18
2022-07-29T23:36:11.837Z,7.15
2022-07-29T23:38:40.870Z,7.35
2022-07-29T23:41:09.803Z,7.35
2022-07-29T23:43:37.804Z,6.72
2022-07-29T23:46:05.567Z,8.10
2022-07-29T23:48:34.170Z,7.25
2022-07-29T23:51:01.810Z,7.90
2022-07-29T23:53:30.967Z,7.63
2022-07-29T23:55:58.608Z,6.72
2022-07-29T23:58:26.235Z,7.63
